Have a Safe July 4th! 

Flight Track Log - Related Links

Times and Time Zones

All times are in EDT time to prevent confusion due to time zone crossing. See the N6ZQ flight status page for this flight to view local times or setup timezone preferences in your user account.

Time Position Orientation Groundspeed Altitude Reporting Facility
EDT Latitude Longitude Course Direction KTS MPH feet Rate Location/Type
Sun 12:12:17 PM 30.5589 -87.8492 12° North 127 146 3,800  Level Houston Center
Sun 12:13:19 PM 30.6050 -87.8353 15° North 134 154 5,200 1,210 Climbing Houston Center
Sun 12:14:21 PM 30.6447 -87.8231 15° North 142 163 6,300 1,016 Climbing Houston Center
Sun 12:15:00 PM 30.7456 -87.7928 12° North  Level FlightAware Approximate
Sun 12:15:23 PM 30.6872 -87.8094 15° North 153 176 7,300  Level Houston Center
Sun 12:16:00 PM 30.8035 -87.7733 23° Northeast  Level FlightAware Approximate
Sun 12:16:25 PM 30.7306 -87.7939 17° North 158 182 8,200  Level Houston Center
Sun 12:17:00 PM 30.8625 -87.7635 12° North  Level FlightAware Approximate
Sun 12:17:27 PM 30.7750 -87.7794 16° North 163 188 9,100  Level Houston Center
Sun 12:18:30 PM 30.8261 -87.7708 North 160 184 10,300 912 Climbing Houston Center
Sun 12:19:32 PM 30.8672 -87.7633 North 155 178 11,000 339 Climbing Houston Center
Sun 12:20:34 PM 30.9164 -87.7533 10° North 174 200 11,000  Level Houston Center
Sun 12:21:36 PM 30.9675 -87.7422 11° North 184 212 11,000  Level Houston Center
Sun 12:22:38 PM 31.0203 -87.7203 20° North 216 249 11,000  Level Houston Center
Sun 12:23:40 PM 31.0794 -87.6694 36° Northeast 221 254 11,000  Level Houston Center
Sun 12:24:43 PM 31.1289 -87.6289 35° Northeast 221 254 11,000  Level Houston Center
Sun 12:25:45 PM 31.1769 -87.5883 36° Northeast 217 250 11,000 97 Level Houston Center
Sun 12:26:47 PM 31.2242 -87.5492 35° Northeast 212 244 11,200 242 Climbing Houston Center
Sun 12:27:49 PM 31.2681 -87.5167 32° Northeast 191 220 11,500 387 Climbing Houston Center
Sun 12:28:51 PM 31.3106 -87.4778 38° Northeast 197 227 12,000 484 Climbing Houston Center
Sun 12:29:53 PM 31.3594 -87.4347 37° Northeast 186 214 12,500 480 Climbing Houston Center
Sun 12:30:56 PM 31.4044 -87.4008 33° Northeast 186 214 13,000 240 Climbing Houston Center
Sun 12:31:58 PM 31.4486 -87.3647 35° Northeast 189 217 13,000  Level Houston Center
Sun 12:33:00 PM 31.4972 -87.3244 35° Northeast 201 231 13,000  Level Houston Center
Sun 12:34:02 PM 31.5475 -87.2847 34° Northeast 211 243 13,000  Level Houston Center
Sun 12:35:04 PM 31.6089 -87.2361 34° Northeast 216 249 13,000  Level Houston Center
Sun 12:35:34 PM 31.6325 -87.2242 23° Northeast 211 243 13,000  Level Atlanta Center
Sun 12:36:34 PM 31.6858 -87.1747 38° Northeast 216 249 13,000  Level Atlanta Center
Sun 12:37:34 PM 31.7350 -87.1350 34° Northeast 216 249 13,000 100 Level Atlanta Center
Sun 12:38:34 PM 31.7839 -87.0978 33° Northeast 216 249 13,200 350 Climbing Atlanta Center
Sun 12:39:34 PM 31.8286 -87.0600 36° Northeast 204 235 13,700 500 Climbing Atlanta Center
Sun 12:40:34 PM 31.8692 -87.0272 34° Northeast 193 222 14,200 450 Climbing Atlanta Center
Sun 12:41:34 PM 31.9117 -86.9919 35° Northeast 188 216 14,600 400 Climbing Atlanta Center
Sun 12:42:34 PM 31.9522 -86.9614 33° Northeast 176 203 15,000 200 Climbing Atlanta Center
Sun 12:43:34 PM 31.9967 -86.9261 34° Northeast 176 203 15,000  Level Atlanta Center
Sun 12:44:34 PM 32.0456 -86.8861 35° Northeast 187 215 15,000  Level Atlanta Center
Sun 12:45:34 PM 32.0925 -86.8483 34° Northeast 200 230 15,000  Level Atlanta Center
Sun 12:46:34 PM 32.1392 -86.8081 36° Northeast 200 230 15,000  Level Atlanta Center
Sun 12:47:34 PM 32.1881 -86.7703 33° Northeast 200 230 15,000  Level Atlanta Center
Sun 12:48:34 PM 32.2242 -86.7419 34° Northeast 200 230 15,000  Level Atlanta Center
Sun 12:49:34 PM 32.2753 -86.6994 35° Northeast 200 230 15,000  Level Atlanta Center
Sun 12:50:34 PM 32.3219 -86.6614 35° Northeast 200 230 15,000  Level Atlanta Center
Sun 12:51:34 PM 32.3686 -86.6233 35° Northeast 200 230 15,000  Level Atlanta Center
Sun 12:52:34 PM 32.4153 -86.5856 34° Northeast 200 230 15,000  Level Atlanta Center
Sun 12:53:34 PM 32.4642 -86.5450 35° Northeast 200 230 15,000  Level Atlanta Center
Sun 12:54:34 PM 32.5089 -86.5092 34° Northeast 200 230 15,000  Level Atlanta Center
Sun 12:55:34 PM 32.5556 -86.4711 34° Northeast 200 230 15,000  Level Atlanta Center
Sun 12:56:34 PM 32.6022 -86.4306 36° Northeast 200 230 15,000  Level Atlanta Center
Sun 12:57:34 PM 32.6489 -86.3947 33° Northeast 200 230 15,000  Level Atlanta Center
Sun 12:58:34 PM 32.6956 -86.3542 36° Northeast 200 230 15,000  Level Atlanta Center
Sun 12:59:34 PM 32.7422 -86.3158 35° Northeast 205 236 15,000 50 Level Atlanta Center
Sun 01:00:34 PM 32.7889 -86.2750 36° Northeast 205 236 15,100 50 Climbing Atlanta Center
Sun 01:01:34 PM 32.8375 -86.2367 34° Northeast 205 236 15,100  Level Atlanta Center
Sun 01:02:34 PM 32.8883 -86.1958 34° Northeast 205 236 15,100  Level Atlanta Center
Sun 01:03:34 PM 32.9369 -86.1525 37° Northeast 205 236 15,100  Level Atlanta Center
Sun 01:04:34 PM 32.9856 -86.1167 32° Northeast 205 236 15,100  Level Atlanta Center
Sun 01:05:34 PM 33.0344 -86.0731 37° Northeast 205 236 15,100 -50 Level Atlanta Center
Sun 01:06:34 PM 33.0853 -86.0322 34° Northeast 205 236 15,000 -50 Descending Atlanta Center
Sun 01:07:34 PM 33.1339 -85.9911 35° Northeast 205 236 15,000  Level Atlanta Center
Sun 01:08:34 PM 33.1825 -85.9500 35° Northeast 210 242 15,000  Level Atlanta Center
Sun 01:09:34 PM 33.2333 -85.9064 36° Northeast 215 247 15,000  Level Atlanta Center
Sun 01:10:34 PM 33.2839 -85.8653 34° Northeast 215 247 15,000  Level Atlanta Center
Sun 01:11:34 PM 33.3325 -85.8239 35° Northeast 215 247 15,000 -50 Level Atlanta Center
Sun 01:12:34 PM 33.3875 -85.7853 30° Northeast 223 257 14,900 -50 Descending Atlanta Center
Sun 01:13:34 PM 33.4403 -85.7417 35° Northeast 228 262 14,900  Level Atlanta Center
Sun 01:14:34 PM 33.4889 -85.6978 37° Northeast 217 250 14,900  Level Atlanta Center
Sun 01:15:34 PM 33.5417 -85.6539 35° Northeast 217 250 14,900  Level Atlanta Center
Sun 01:16:34 PM 33.5900 -85.6100 37° Northeast 211 243 14,900  Level Atlanta Center
Sun 01:17:34 PM 33.6428 -85.5708 32° Northeast 211 243 14,900  Level Atlanta Center
Sun 01:18:34 PM 33.6914 -85.5269 37° Northeast 217 250 14,900  Level Atlanta Center
Sun 01:19:34 PM 33.7442 -85.4828 35° Northeast 222 255 14,900  Level Atlanta Center
Sun 01:20:34 PM 33.7761 -85.4183 59° Northeast 222 255 14,900  Level Atlanta Center
Sun 01:21:34 PM 33.8144 -85.3514 55° Northeast 233 268 14,900  Level Atlanta Center
Sun 01:22:34 PM 33.8464 -85.2919 57° Northeast 233 268 14,900  Level Atlanta Center
Sun 01:23:34 PM 33.8825 -85.2250 57° Northeast 233 268 14,900 50 Level Atlanta Center
Sun 01:24:34 PM 33.9164 -85.1553 60° Northeast 233 268 15,000  Climbing Atlanta Center
Sun 01:25:34 PM 33.9214 -85.0753 86° East 227 261 14,900 -50 Descending Atlanta Center
Sun 01:26:34 PM 33.9450 -84.9978 70° East 227 261 14,900  Level Atlanta Center
Sun 01:27:34 PM 33.9853 -84.9306 54° Northeast 227 261 14,900  Level Atlanta Center
Sun 01:28:34 PM 34.0211 -84.8608 58° Northeast 239 275 14,900  Level Atlanta Center
Sun 01:29:34 PM 34.0592 -84.7936 56° Northeast 232 267 14,900 -50 Level Atlanta Center
Sun 01:30:34 PM 34.0928 -84.7311 57° Northeast 232 267 14,800  Descending Atlanta Center
Sun 01:31:34 PM 34.1308 -84.6636 56° Northeast 232 267 14,900 100 Climbing Atlanta Center
Sun 01:32:34 PM 34.1667 -84.5986 56° Northeast 232 267 15,000 50 Climbing Atlanta Center
Sun 01:33:34 PM 34.2022 -84.5336 57° Northeast 227 261 15,000  Level Atlanta Center
Sun 01:34:34 PM 34.2339 -84.4736 57° Northeast 233 268 15,000  Level Atlanta Center
Sun 01:35:34 PM 34.2694 -84.4083 57° Northeast 233 268 15,000  Level Atlanta Center
Sun 01:36:34 PM 34.3072 -84.3406 56° Northeast 233 268 15,000  Level Atlanta Center
Sun 01:37:34 PM 34.3431 -84.2728 57° Northeast 233 268 15,000  Level Atlanta Center
Sun 01:38:34 PM 34.3806 -84.2050 56° Northeast 233 268 15,000  Level Atlanta Center
Sun 01:39:34 PM 34.4183 -84.1319 58° Northeast 233 268 15,000  Level Atlanta Center
Sun 01:40:34 PM 34.4581 -84.0614 56° Northeast 238 274 15,000  Level Atlanta Center
Sun 01:41:34 PM 34.4956 -83.9958 55° Northeast 238 274 15,000  Level Atlanta Center
Sun 01:42:34 PM 34.5289 -83.9253 60° Northeast 238 274 15,000  Level Atlanta Center
Sun 01:43:34 PM 34.5664 -83.8597 55° Northeast 232 267 15,000  Level Atlanta Center
Sun 01:44:34 PM 34.6058 -83.7889 56° Northeast 232 267 15,000  Level Atlanta Center
Sun 01:45:34 PM 34.6411 -83.7206 58° Northeast 232 267 15,000  Level Atlanta Center
Sun 01:46:34 PM 34.6764 -83.6522 58° Northeast 232 267 15,000  Level Atlanta Center
Sun 01:47:34 PM 34.7139 -83.5814 57° Northeast 232 267 15,000  Level Atlanta Center
Sun 01:48:34 PM 34.7469 -83.5231 55° Northeast 232 267 15,000  Level Atlanta Center
Sun 01:49:34 PM 34.7822 -83.4597 56° Northeast 232 267 15,000  Level Atlanta Center
Sun 01:50:34 PM 34.8194 -83.3861 58° Northeast 237 273 15,000  Level Atlanta Center
Sun 01:51:34 PM 34.8564 -83.3147 58° Northeast 237 273 15,000  Level Atlanta Center
Sun 01:52:34 PM 34.8958 -83.2436 56° Northeast 242 278 15,000  Level Atlanta Center
Sun 01:53:34 PM 34.9328 -83.1722 58° Northeast 248 285 15,000  Level Atlanta Center
Sun 01:54:34 PM 34.9678 -83.1086 56° Northeast 235 270 15,000  Level Atlanta Center
Sun 01:55:34 PM 35.0047 -83.0372 58° Northeast 235 270 15,000  Level Atlanta Center
Sun 01:56:34 PM 35.0397 -82.9683 58° Northeast 235 270 15,000  Level Atlanta Center
Sun 01:57:34 PM 35.0767 -82.8992 57° Northeast 235 270 15,000  Level Atlanta Center
Sun 01:58:34 PM 35.1114 -82.8328 57° Northeast 235 270 15,000  Level Atlanta Center
Sun 01:59:34 PM 35.1483 -82.7661 56° Northeast 235 270 15,000  Level Atlanta Center
Sun 02:00:34 PM 35.1811 -82.6997 59° Northeast 229 264 15,000  Level Atlanta Center
Sun 02:01:34 PM 35.2219 -82.6253 56° Northeast 235 270 15,000  Level Atlanta Center
Sun 02:02:34 PM 35.2586 -82.5611 55° Northeast 235 270 15,000  Level Atlanta Center
Sun 02:03:34 PM 35.2911 -82.4917 60° Northeast 235 270 15,000  Level Atlanta Center
Sun 02:04:34 PM 35.3281 -82.4247 56° Northeast 235 270 15,000  Level Atlanta Center
Sun 02:05:34 PM 35.3667 -82.3603 54° Northeast 235 270 15,000  Level Atlanta Center
Sun 02:06:34 PM 35.4075 -82.2958 52° Northeast 235 270 15,000  Level Atlanta Center
Sun 02:07:34 PM 35.4461 -82.2314 54° Northeast 235 270 15,000  Level Atlanta Center
Sun 02:08:34 PM 35.4869 -82.1692 51° Northeast 235 270 15,000  Level Atlanta Center
Sun 02:09:34 PM 35.5278 -82.1044 52° Northeast 230 265 15,000  Level Atlanta Center
Sun 02:10:34 PM 35.5686 -82.0422 51° Northeast 230 265 15,000  Level Atlanta Center
Sun 02:11:34 PM 35.6092 -81.9772 52° Northeast 230 265 15,000  Level Atlanta Center
Sun 02:12:34 PM 35.6436 -81.9203 53° Northeast 230 265 15,000  Level Atlanta Center
Sun 02:13:34 PM 35.6842 -81.8553 52° Northeast 230 265 15,000 50 Level Atlanta Center
Sun 02:14:34 PM 35.7269 -81.7903 51° Northeast 230 265 15,100 50 Climbing Atlanta Center
Sun 02:15:34 PM 35.7653 -81.7225 55° Northeast 230 265 15,100  Level Atlanta Center
Sun 02:16:34 PM 35.8078 -81.6575 51° Northeast 230 265 15,100  Level Atlanta Center
Sun 02:17:34 PM 35.8461 -81.5947 53° Northeast 230 265 15,100 -50 Level Atlanta Center
Sun 02:18:34 PM 35.8886 -81.5269 52° Northeast 230 265 15,000 -50 Descending Atlanta Center
Sun 02:19:34 PM 35.9289 -81.4617 53° Northeast 230 265 15,000  Level Atlanta Center
Sun 02:20:34 PM 35.9694 -81.3961 53° Northeast 230 265 15,000 50 Level Atlanta Center
Sun 02:21:34 PM 36.0094 -81.3281 54° Northeast 230 265 15,100 50 Climbing Atlanta Center
Sun 02:22:34 PM 36.0497 -81.2600 54° Northeast 230 265 15,100 -50 Level Atlanta Center
Sun 02:23:34 PM 36.0900 -81.1942 53° Northeast 230 265 15,000 -50 Descending Atlanta Center
Sun 02:24:34 PM 36.1322 -81.1286 51° Northeast 230 265 15,000  Level Atlanta Center
Sun 02:25:34 PM 36.1722 -81.0603 54° Northeast 230 265 15,000  Level Atlanta Center
Sun 02:26:34 PM 36.2144 -80.9917 53° Northeast 235 270 15,000  Level Atlanta Center
Sun 02:27:34 PM 36.2544 -80.9258 53° Northeast 235 270 15,000  Level Atlanta Center
Sun 02:28:34 PM 36.2944 -80.8575 54° Northeast 235 270 15,000  Level Atlanta Center
Sun 02:29:34 PM 36.3344 -80.7914 53° Northeast 235 270 15,000  Level Atlanta Center
Sun 02:30:34 PM 36.3744 -80.7253 53° Northeast 235 270 15,000  Level Atlanta Center
Sun 02:31:34 PM 36.4164 -80.6564 53° Northeast 230 265 15,000  Level Atlanta Center
Sun 02:32:34 PM 36.4561 -80.5928 52° Northeast 230 265 15,000  Level Atlanta Center
Sun 02:34:54 PM 36.5483 -80.4347 54° Northeast 239 275 15,000  Level Washington Center
Sun 02:35:54 PM 36.5908 -80.3675 52° Northeast 239 275 15,000  Level Washington Center
Sun 02:36:55 PM 36.6356 -80.2925 53° Northeast 244 281 15,000  Level Washington Center
Sun 02:37:55 PM 36.6758 -80.2225 54° Northeast 244 281 15,000  Level Washington Center
Sun 02:38:53 PM 36.7181 -80.1550 52° Northeast 244 281 15,000  Level Washington Center
Sun 02:39:54 PM 36.7581 -80.0875 53° Northeast 244 281 15,000  Level Washington Center
Sun 02:40:54 PM 36.7958 -80.0247 53° Northeast 244 281 15,000  Level Washington Center
Sun 02:41:55 PM 36.8361 -79.9544 54° Northeast 244 281 15,000  Level Washington Center
Sun 02:42:55 PM 36.8761 -79.8867 54° Northeast 244 281 15,000  Level Washington Center
Sun 02:43:53 PM 36.9161 -79.8161 55° Northeast 244 281 15,000  Level Washington Center
Sun 02:44:54 PM 36.9628 -79.7381 53° Northeast 244 281 15,000  Level Washington Center
Sun 02:45:55 PM 37.0025 -79.6700 54° Northeast 244 281 15,000  Level Washington Center
Sun 02:46:55 PM 37.0444 -79.5992 53° Northeast 244 281 15,000  Level Washington Center
Sun 02:47:53 PM 37.0844 -79.5283 55° Northeast 244 281 15,000  Level Washington Center
Sun 02:48:53 PM 37.1242 -79.4628 53° Northeast 244 281 15,000  Level Washington Center
Sun 02:49:54 PM 37.1661 -79.3892 54° Northeast 249 287 15,000  Level Washington Center
Sun 02:50:54 PM 37.2081 -79.3183 53° Northeast 249 287 15,000  Level Washington Center
Sun 02:51:55 PM 37.2544 -79.2369 54° Northeast 254 292 15,000  Level Washington Center
Sun 02:52:55 PM 37.3000 -79.1739 48° Northeast 254 292 15,000  Level Washington Center
Sun 02:53:54 PM 37.3458 -79.1083 49° Northeast 248 285 15,000  Level Washington Center
Sun 02:54:54 PM 37.3831 -79.0472 53° Northeast 248 285 15,000  Level Washington Center
Sun 02:55:55 PM 37.4247 -78.9783 53° Northeast 243 280 15,000  Level Washington Center
Sun 02:56:53 PM 37.4664 -78.9069 54° Northeast 243 280 15,000  Level Washington Center
Sun 02:57:53 PM 37.5036 -78.8433 54° Northeast 243 280 15,000  Level Washington Center
Sun 02:58:55 PM 37.5453 -78.7664 56° Northeast 243 280 15,000  Level Washington Center
Sun 02:59:55 PM 37.5822 -78.7078 51° Northeast 238 274 15,000 -254 Level Washington Center
Sun 03:00:53 PM 37.6194 -78.6383 56° Northeast 238 274 14,500 -508 Descending Washington Center
Sun 03:01:53 PM 37.6564 -78.5744 54° Northeast 238 274 14,000 -295 Descending Washington Center
Sun 03:02:55 PM 37.6958 -78.5075 53° Northeast 238 274 13,900 -550 Descending Washington Center
Sun 03:03:53 PM 37.7369 -78.4358 54° Northeast 238 274 12,900 -1,017 Descending Washington Center
Sun 03:04:53 PM 37.7806 -78.3611 54° Northeast 251 289 11,900 -942 Descending Washington Center
Sun 03:05:54 PM 37.8283 -78.2708 56° Northeast 266 306 11,000 -446 Descending Washington Center
Sun 03:06:54 PM 37.8697 -78.2014 53° Northeast 261 300 11,000 -397 Level Washington Center
Sun 03:07:55 PM 37.9022 -78.1342 58° Northeast 256 295 10,200 -857 Descending Washington Center
Sun 03:08:53 PM 37.9414 -78.0617 56° Northeast 251 289 9,300 -958 Descending Washington Center
Sun 03:09:54 PM 37.9803 -77.9917 55° Northeast 251 289 8,300 -942 Descending Washington Center
Sun 03:10:54 PM 38.0192 -77.9244 54° Northeast 238 274 7,400 -843 Descending Washington Center
Sun 03:11:55 PM 38.0536 -77.8700 51° Northeast 220 253 6,600 -928 Descending Washington Center
Sun 03:14:21 PM 38.1333 -77.7167 57° Northeast 195 224 4,200 -986 Descending Potomac TRACON
Sun 03:16:00 PM 38.1830 -77.6088 50° Northeast  Level FlightAware Approximate
Sun 03:23:00 PM 38.3833 -77.4500 297° West  Level FlightAware Approximate
Sun 03:24:00 PM 38.3981 -77.4555 North  Level Estimated
Sun 03:25:00 PM 38.3981 -77.4555 297° West  Level Estimated
Sun 03:26:00 PM 38.3981 -77.4555 164° South  Level Estimated
Sun 03:27:00 PM 38.3981 -77.4555 297° West  Level Estimated
Sun 03:28:00 PM 38.3981 -77.4555 164° South  Level Estimated
Sun 03:29:00 PM 38.3981 -77.4555 297° West  Level Estimated
Sun 03:30:00 PM 38.3981 -77.4555 164° South  Level Estimated
Sun 03:31:00 PM 38.3981 -77.4555 297° West  Level Estimated
Sun 03:32:00 PM 38.3981 -77.4555 164° South  Level Estimated
Sun 03:33:00 PM 38.3981 -77.4555 297° West  Level Estimated
Sun 03:34:00 PM 38.3981 -77.4555 164° South  Level Estimated
Sun 03:35:00 PM 38.3981 -77.4555 297° West  Level Estimated
Sun 03:36:00 PM 38.3981 -77.4555 164° South  Level Estimated
Sun 03:37:00 PM 38.3981 -77.4555 297° West  Level Estimated
Sun 03:38:00 PM 38.3981 -77.4555 164° South  Level Estimated
Sun 03:39:00 PM 38.3981 -77.4555 297° West  Level Estimated
Sun 03:40:00 PM 38.3981 -77.4555 164° South  Level Estimated
Sun 03:41:00 PM 38.3981 -77.4555 297° West  Level Estimated
Sun 03:42:00 PM 38.3981 -77.4555 164° South  Level Estimated

Login

Don't have an account? Register now (free) for customized features, flight alerts, and more!